Impacts METAR Board
IDs:

KJFK - New York/Kennedy Int, NY, US

Updated at: 1600 UTC 20 Aug 2019
Potential Impact None Slight Moderate High
Time 20/04Z 20/05Z 20/06Z 20/07Z 20/08Z 20/09Z 20/10Z 20/11Z 20/12Z 20/13Z 20/14Z 20/15Z 20/16Z
Temp76 75 76 76 75 76 75 75 77 80 82 84 85
Dewpt74 74 75 74 74 73 72 69 68 65 66 66 68
Altim30.01 30.01 30.02 30.02 30.03 30.05 30.07 30.10 30.11 30.11 30.11 30.11 30.11
VIS10 10 10 10 10 10 10 10 10 10 10 10 10
CIG-- -- 250 250 250 250 250 250 320 320 320 -- --
CoverSCTSCTBKNBKNBKNBKNBKNBKNBKNBKNBKNSCTSCT
FltCatVFRVFRVFRVFRVFRVFRVFRVFRVFRVFRVFRVFRVFR
WX--------------------------
WDir2302402602602503404030305050110180
WSpd6 6 6 5 3 3 4 5 8 11 9 4 7
WGst-- -- -- -- -- -- -- -- -- -- -- -- --
Raw hourly METARs
KJFK 200351Z 23006KT 10SM SCT250 24/23 A3001 RMK AO2 SLP162 T02440233 $
KJFK 200451Z 24006KT 10SM SCT250 24/23 A3001 RMK AO2 SLP163 T02390233 403000222 $
KJFK 200551Z 26006KT 10SM BKN250 24/24 A3002 RMK AO2 SLP165 T02440239 10256 20239 53004 $
KJFK 200651Z 26005KT 10SM BKN250 24/23 A3002 RMK AO2 SLP167 T02440233 $
KJFK 200751Z 25003KT 10SM BKN250 24/23 A3003 RMK AO2 SLP168 T02390233 $
KJFK 200851Z 34003KT 10SM BKN250 24/23 A3005 RMK AO2 SLP174 T02440228 53009 $
KJFK 200951Z 04004KT 10SM BKN250 24/22 A3007 RMK AO2 SLP183 T02390222 $
KJFK 201051Z 03005KT 10SM BKN250 24/21 A3010 RMK AO2 SLP191 T02390206 $
KJFK 201151Z 03008KT 10SM BKN320 25/20 A3011 RMK AO2 SLP194 70015 T02500200 10250 20233 51020 $
KJFK 201251Z 05011KT 10SM BKN320 27/18 A3011 RMK AO2 SLP195 T02670183 $
KJFK 201351Z 05009KT 10SM FEW042 BKN320 28/19 A3011 RMK AO2 SLP195 T02780189 $
KJFK 201451Z 11004KT 10SM FEW045 SCT300 29/19 A3011 RMK AO2 SLP196 T02890189 51002
KJFK 201551Z 18007KT 10SM FEW048 SCT300 29/20 A3011 RMK AO2 SLP195 T02940200



Page loaded:  16:21 UTC  |   09:21 AM Pacific  |   10:21 AM Mountain  |   11:21 AM Central  |   12:21 PM Eastern

 

ADVISORIES

FORECASTS

FORECASTS

OBSERVATIONS

USER TOOLS

ABOUT US